Time;durP1;ratioP1;P1;durP2;ratioP2;P2;SDS_P1;SDS_P2;PMS_P1;PMS_P2;Temp;Humidity;BMP_temperature;BMP_pressure;BME280_temperature;BME280_humidity;BME280_pressure;Samples;Min_cycle;Max_cycle;Signal;HPM_P1;HPM_P2
2022/07/27 00:01:16;;;;;;;7.45;1.38;;;16.70;61.90;;;;;;5024488;28;20052;-65
2022/07/27 00:03:44;;;;;;;5.13;1.17;;;16.70;61.80;;;;;;5013104;28;20164;-65
2022/07/27 00:06:11;;;;;;;5.82;1.50;;;16.70;62.00;;;;;;5040568;28;20402;-66
2022/07/27 00:08:38;;;;;;;7.32;1.38;;;16.70;61.90;;;;;;5028514;28;20045;-64
2022/07/27 00:11:07;;;;;;;8.98;1.83;;;16.80;61.80;;;;;;5046882;28;20044;-65
2022/07/27 00:13:34;;;;;;;7.50;1.52;;;16.80;61.50;;;;;;5046007;28;20064;-64
2022/07/27 00:16:01;;;;;;;7.63;1.40;;;16.70;62.00;;;;;;5025984;28;20107;-64
2022/07/27 00:18:28;;;;;;;4.95;1.33;;;16.60;62.10;;;;;;5030706;28;20049;-63
2022/07/27 00:20:55;;;;;;;9.45;1.65;;;16.60;62.70;;;;;;5028774;28;20052;-63
2022/07/27 00:23:22;;;;;;;7.47;1.50;;;16.40;63.10;;;;;;5036444;28;20136;-63
2022/07/27 00:25:48;;;;;;;5.97;1.30;;;16.40;63.60;;;;;;5027956;28;20131;-64
2022/07/27 00:28:15;;;;;;;4.55;1.20;;;16.30;63.70;;;;;;5028760;28;20479;-64
2022/07/27 00:30:42;;;;;;;8.38;1.40;;;16.30;63.70;;;;;;5048826;28;20124;-65
2022/07/27 00:33:09;;;;;;;7.13;1.30;;;16.40;63.60;;;;;;5042412;28;20042;-64
2022/07/27 00:35:35;;;;;;;4.68;1.13;;;16.40;63.70;;;;;;5047183;28;20052;-65
2022/07/27 00:38:02;;;;;;;6.03;1.30;;;16.30;63.90;;;;;;5038636;28;20056;-64
2022/07/27 00:40:28;;;;;;;8.20;1.92;;;16.30;64.10;;;;;;5009296;28;20828;-64
2022/07/27 00:42:54;;;;;;;5.68;1.40;;;16.30;64.30;;;;;;5036988;28;20061;-65
2022/07/27 00:45:21;;;;;;;6.55;1.42;;;16.20;64.50;;;;;;5043479;28;20478;-64
2022/07/27 00:47:49;;;;;;;6.30;1.35;;;16.30;64.50;;;;;;5043899;28;20513;-66
2022/07/27 00:50:16;;;;;;;6.47;1.40;;;16.30;64.30;;;;;;5026633;28;20047;-64
2022/07/27 00:52:42;;;;;;;7.28;1.77;;;16.20;64.40;;;;;;5042469;28;20130;-65
2022/07/27 00:55:09;;;;;;;9.38;1.60;;;16.20;64.90;;;;;;5014376;28;20806;-64
2022/07/27 00:57:36;;;;;;;5.80;1.27;;;16.10;65.00;;;;;;5026202;28;20383;-64
2022/07/27 01:00:04;;;;;;;9.00;1.40;;;16.10;65.40;;;;;;5030088;28;20572;-65
2022/07/27 01:02:31;;;;;;;7.50;1.65;;;16.00;65.50;;;;;;5043405;28;20639;-64
2022/07/27 01:04:58;;;;;;;14.07;2.50;;;16.10;65.30;;;;;;5027863;28;20383;-65
2022/07/27 01:07:25;;;;;;;8.02;2.08;;;16.00;65.50;;;;;;5032612;28;20344;-64
2022/07/27 01:09:58;;;;;;;8.85;1.75;;;16.00;66.10;;;;;;5047855;28;20482;-64
2022/07/27 01:12:31;;;;;;;6.72;1.50;;;16.00;66.10;;;;;;5042911;28;20073;-64
2022/07/27 01:14:58;;;;;;;5.13;1.35;;;16.00;66.30;;;;;;5043922;28;20045;-65
2022/07/27 01:17:26;;;;;;;6.93;1.35;;;16.00;66.10;;;;;;5042037;28;20107;-64
2022/07/27 01:19:53;;;;;;;6.60;1.63;;;16.00;66.00;;;;;;5047942;28;20717;-63
2022/07/27 01:22:20;;;;;;;7.10;1.40;;;16.00;66.20;;;;;;5027738;28;20708;-64
2022/07/27 01:24:48;;;;;;;6.75;1.50;;;16.00;66.20;;;;;;5039489;28;20114;-64
2022/07/27 01:27:15;;;;;;;7.75;1.60;;;16.10;66.10;;;;;;5048731;28;20056;-64
2022/07/27 01:29:42;;;;;;;5.00;1.10;;;16.10;66.20;;;;;;5045356;28;20045;-64
2022/07/27 01:32:09;;;;;;;6.10;1.45;;;16.00;66.40;;;;;;5028121;28;20111;-64
2022/07/27 01:34:36;;;;;;;5.22;1.38;;;16.00;66.80;;;;;;5048736;28;20059;-67
2022/07/27 01:37:03;;;;;;;4.80;1.30;;;16.00;66.80;;;;;;5041171;28;20115;-63
2022/07/27 01:39:30;;;;;;;5.03;1.30;;;15.90;67.10;;;;;;5028583;28;20501;-65
2022/07/27 01:41:58;;;;;;;4.13;1.30;;;15.90;67.30;;;;;;5028551;28;20060;-66
2022/07/27 01:44:25;;;;;;;6.40;1.58;;;15.90;67.40;;;;;;5046109;28;20059;-66
2022/07/27 01:46:52;;;;;;;8.55;1.67;;;15.80;67.90;;;;;;5027534;28;20045;-65
2022/07/27 01:49:19;;;;;;;9.10;1.40;;;15.80;67.90;;;;;;5024213;28;20052;-64
2022/07/27 01:51:46;;;;;;;6.20;1.10;;;15.70;68.80;;;;;;5044304;28;20049;-65
2022/07/27 01:54:12;;;;;;;6.45;1.52;;;15.60;68.90;;;;;;5026651;28;20076;-64
2022/07/27 01:56:38;;;;;;;6.03;1.38;;;15.50;69.10;;;;;;5033072;28;20099;-63
2022/07/27 01:59:06;;;;;;;5.97;1.48;;;15.50;69.60;;;;;;5026100;28;20045;-65
2022/07/27 02:01:32;;;;;;;7.13;1.33;;;15.40;69.40;;;;;;5035232;28;20135;-63
2022/07/27 02:03:59;;;;;;;8.60;1.83;;;15.40;69.50;;;;;;5029369;28;20049;-65
2022/07/27 02:06:26;;;;;;;7.53;1.10;;;15.40;69.50;;;;;;5046068;28;20722;-66
2022/07/27 02:08:53;;;;;;;6.15;1.15;;;15.40;69.70;;;;;;5004711;28;20046;-64
2022/07/27 02:14:06;;;;;;;5.68;1.10;;;15.30;70.20;;;;;;5042110;28;20106;-64
2022/07/27 02:16:33;;;;;;;5.43;1.45;;;15.40;69.80;;;;;;5048128;28;20040;-65
2022/07/27 02:19:00;;;;;;;8.05;1.65;;;15.40;70.10;;;;;;5042639;28;20509;-64
2022/07/27 02:21:27;;;;;;;7.45;1.52;;;15.30;70.10;;;;;;5045443;28;20479;-64
2022/07/27 02:23:54;;;;;;;5.47;1.20;;;15.30;71.00;;;;;;5030380;28;20467;-64
2022/07/27 02:26:21;;;;;;;5.90;1.27;;;15.20;70.30;;;;;;5046952;28;20041;-64
2022/07/27 02:28:48;;;;;;;5.07;1.40;;;15.20;70.20;;;;;;5023387;28;20041;-63
2022/07/27 02:31:15;;;;;;;9.63;1.52;;;15.10;70.70;;;;;;5044830;28;20750;-64
2022/07/27 02:33:42;;;;;;;5.35;1.33;;;15.10;71.00;;;;;;5046732;28;20371;-64
2022/07/27 02:36:09;;;;;;;8.25;1.23;;;15.10;71.10;;;;;;5039753;28;20389;-63
2022/07/27 02:38:36;;;;;;;6.70;1.30;;;15.10;70.80;;;;;;5034798;28;20045;-65
2022/07/27 02:41:03;;;;;;;8.18;1.40;;;15.20;70.40;;;;;;5010270;28;20041;-65
2022/07/27 02:43:30;;;;;;;8.10;1.33;;;15.20;70.50;;;;;;5026956;28;20050;-63
2022/07/27 02:45:57;;;;;;;5.57;1.55;;;15.10;71.00;;;;;;5042449;28;20363;-64
2022/07/27 02:48:24;;;;;;;5.82;1.30;;;15.10;70.90;;;;;;5051709;28;20079;-63
2022/07/27 02:50:51;;;;;;;8.45;1.33;;;15.10;71.10;;;;;;5030321;28;20124;-64
2022/07/27 02:53:18;;;;;;;3.85;1.42;;;15.00;71.40;;;;;;5025342;28;20053;-64
2022/07/27 02:55:45;;;;;;;5.50;1.60;;;15.10;71.90;;;;;;5052503;28;20075;-64
2022/07/27 02:58:12;;;;;;;7.03;1.73;;;15.00;71.80;;;;;;5030861;28;20550;-65
2022/07/27 03:00:39;;;;;;;7.50;1.58;;;15.10;71.30;;;;;;5045918;28;20115;-65
2022/07/27 03:03:06;;;;;;;7.63;1.35;;;15.20;70.90;;;;;;5042197;28;20061;-64
2022/07/27 03:05:33;;;;;;;6.78;1.35;;;15.20;71.00;;;;;;5065720;28;20049;-64
2022/07/27 03:08:00;;;;;;;7.55;1.35;;;15.30;70.60;;;;;;5051311;28;20053;-63
2022/07/27 03:10:27;;;;;;;6.75;1.88;;;15.20;71.10;;;;;;5026559;28;20772;-64
2022/07/27 03:12:54;;;;;;;5.38;1.20;;;15.20;71.00;;;;;;5033017;28;20076;-65
2022/07/27 03:15:21;;;;;;;7.47;1.60;;;15.10;71.20;;;;;;5030811;28;20118;-63
2022/07/27 03:17:49;;;;;;;5.65;1.30;;;15.10;71.90;;;;;;5025372;28;20055;-64
2022/07/27 03:20:16;;;;;;;5.78;1.35;;;15.00;71.90;;;;;;5049874;28;20079;-63
2022/07/27 03:22:43;;;;;;;5.30;1.67;;;15.00;72.10;;;;;;5029948;28;20124;-64
2022/07/27 03:25:10;;;;;;;8.82;1.65;;;15.10;71.70;;;;;;5046442;28;20072;-64
2022/07/27 03:27:37;;;;;;;4.05;1.30;;;15.00;71.90;;;;;;5013121;28;20045;-64
2022/07/27 03:30:05;;;;;;;7.28;1.55;;;14.90;72.50;;;;;;5043292;28;20083;-64
2022/07/27 03:32:32;;;;;;;;;;;14.90;72.90;;;;;;5031071;28;20165;-64
2022/07/27 03:34:59;;;;;;;3.92;1.40;;;14.90;72.90;;;;;;5045485;28;19960;-65
2022/07/27 03:37:26;;;;;;;4.35;1.05;;;14.80;73.40;;;;;;5027183;28;20060;-65
2022/07/27 03:39:52;;;;;;;7.05;1.48;;;14.80;73.30;;;;;;5043562;28;20370;-64
2022/07/27 03:42:20;;;;;;;10.07;1.73;;;14.80;73.20;;;;;;5020888;28;20261;-64
2022/07/27 03:44:46;;;;;;;6.93;1.70;;;14.90;73.30;;;;;;5043416;28;20049;-64
2022/07/27 03:47:14;;;;;;;6.60;1.30;;;14.90;72.80;;;;;;5047046;28;20037;-64
2022/07/27 03:49:41;;;;;;;7.97;1.63;;;14.80;73.60;;;;;;5066126;28;20049;-65
2022/07/27 03:52:08;;;;;;;6.85;1.25;;;14.80;73.40;;;;;;5045651;28;20115;-65
2022/07/27 03:54:35;;;;;;;9.80;1.58;;;14.90;73.40;;;;;;5039249;28;20067;-65
2022/07/27 03:57:03;;;;;;;3.70;1.23;;;14.90;73.40;;;;;;5048589;28;20052;-64
2022/07/27 03:59:30;;;;;;;8.48;1.70;;;14.90;73.20;;;;;;5047540;28;20479;-64
2022/07/27 04:01:57;;;;;;;6.18;1.40;;;14.90;73.30;;;;;;5049183;28;20053;-64
2022/07/27 04:04:24;;;;;;;8.82;1.45;;;14.80;73.80;;;;;;5016243;28;20655;-63
2022/07/27 04:06:51;;;;;;;4.97;1.33;;;14.80;73.80;;;;;;5047381;28;20057;-65
2022/07/27 04:09:18;;;;;;;8.15;1.50;;;14.80;74.10;;;;;;5049988;28;20072;-65
2022/07/27 04:11:45;;;;;;;8.82;1.70;;;14.80;74.10;;;;;;5022944;28;20041;-64
2022/07/27 04:14:12;;;;;;;7.07;1.67;;;14.80;74.20;;;;;;5028837;28;20530;-64
2022/07/27 04:16:40;;;;;;;5.80;2.10;;;14.80;74.10;;;;;;5043198;28;20049;-65
2022/07/27 04:19:07;;;;;;;6.57;1.70;;;14.90;73.90;;;;;;5047936;28;20109;-66
2022/07/27 04:21:34;;;;;;;12.32;2.15;;;15.00;73.60;;;;;;5031114;28;20081;-64
2022/07/27 04:24:01;;;;;;;5.50;1.63;;;15.00;73.60;;;;;;5025108;28;20562;-64
2022/07/27 04:26:28;;;;;;;5.72;1.30;;;15.00;73.60;;;;;;5047035;28;20119;-64
2022/07/27 04:28:54;;;;;;;8.38;1.70;;;15.10;73.50;;;;;;5049443;28;20032;-63
2022/07/27 04:31:22;;;;;;;5.85;1.33;;;15.00;73.70;;;;;;5026457;28;20107;-63
2022/07/27 04:33:49;;;;;;;6.90;1.80;;;15.00;73.80;;;;;;5045606;28;20036;-63
2022/07/27 04:36:16;;;;;;;7.13;1.58;;;15.00;74.00;;;;;;5046483;28;20538;-63
2022/07/27 04:38:45;;;;;;;5.78;1.55;;;15.00;74.20;;;;;;5039440;28;20144;-66
2022/07/27 04:41:11;;;;;;;9.57;1.35;;;15.00;74.00;;;;;;5045256;28;20044;-63
2022/07/27 04:43:38;;;;;;;8.48;2.03;;;15.00;74.10;;;;;;5034811;28;20091;-63
2022/07/27 04:46:05;;;;;;;6.40;1.40;;;15.10;73.80;;;;;;5027564;28;20045;-65
2022/07/27 04:48:33;;;;;;;6.57;1.25;;;15.00;74.00;;;;;;5043683;28;20048;-64
2022/07/27 04:51:00;;;;;;;4.65;1.45;;;15.00;74.00;;;;;;5043093;28;20044;-64
2022/07/27 04:53:27;;;;;;;6.53;1.35;;;15.10;73.80;;;;;;5044263;28;20056;-63
2022/07/27 04:55:54;;;;;;;5.28;1.45;;;15.00;74.00;;;;;;4998985;28;20467;-66
2022/07/27 04:58:21;;;;;;;6.22;1.50;;;15.10;74.00;;;;;;5019258;28;20145;-65
2022/07/27 05:00:48;;;;;;;8.75;1.88;;;15.10;74.10;;;;;;5023057;28;20160;-65
2022/07/27 05:03:15;;;;;;;7.43;1.58;;;15.10;73.70;;;;;;5037586;28;20073;-65
2022/07/27 05:05:41;;;;;;;6.22;1.50;;;15.20;73.60;;;;;;5035722;28;20046;-65
2022/07/27 05:08:07;;;;;;;6.38;1.65;;;15.20;73.30;;;;;;5046033;28;20045;-63
2022/07/27 05:10:33;;;;;;;7.70;1.90;;;15.20;73.50;;;;;;5046307;28;20045;-64
2022/07/27 05:13:00;;;;;;;5.93;1.27;;;15.20;73.40;;;;;;5054362;28;20149;-66
2022/07/27 05:15:28;;;;;;;6.68;1.63;;;15.10;74.10;;;;;;5025192;28;20506;-64
2022/07/27 05:17:55;;;;;;;7.20;1.40;;;15.20;73.70;;;;;;5027071;28;20094;-65
2022/07/27 05:20:22;;;;;;;6.63;1.77;;;15.00;74.40;;;;;;5042538;28;20102;-64
2022/07/27 05:22:50;;;;;;;6.83;1.50;;;15.20;73.90;;;;;;5047814;28;20123;-64
2022/07/27 05:25:17;;;;;;;6.65;1.73;;;15.00;74.50;;;;;;5045559;28;20060;-64
2022/07/27 05:27:44;;;;;;;4.38;1.30;;;15.00;75.10;;;;;;5047772;28;20131;-64
2022/07/27 05:30:11;;;;;;;9.50;1.75;;;15.10;74.30;;;;;;5054213;28;20064;-64
2022/07/27 05:32:38;;;;;;;5.75;1.75;;;15.00;74.30;;;;;;5028321;28;20048;-64
2022/07/27 05:35:06;;;;;;;6.80;1.60;;;15.00;74.70;;;;;;5047418;28;20049;-64
2022/07/27 05:37:32;;;;;;;4.73;1.33;;;15.00;74.50;;;;;;5043695;28;20498;-64
2022/07/27 05:39:59;;;;;;;6.22;1.40;;;15.20;74.00;;;;;;5018710;28;20045;-64
2022/07/27 05:42:26;;;;;;;7.13;1.60;;;15.10;74.20;;;;;;5025473;28;20056;-63
2022/07/27 05:44:54;;;;;;;5.22;1.75;;;15.10;74.20;;;;;;5041761;28;20111;-65
2022/07/27 05:47:21;;;;;;;5.35;1.50;;;15.00;73.90;;;;;;5020796;28;20045;-67
2022/07/27 05:49:48;;;;;;;6.90;1.70;;;15.10;73.60;;;;;;5044244;28;20051;-64
2022/07/27 05:52:15;;;;;;;6.55;1.80;;;15.10;74.00;;;;;;5044825;28;20495;-65
2022/07/27 05:54:43;;;;;;;8.57;2.10;;;15.20;73.50;;;;;;5029124;28;20383;-65
2022/07/27 05:57:10;;;;;;;8.80;1.83;;;15.30;73.10;;;;;;5018199;28;20474;-64
2022/07/27 05:59:37;;;;;;;6.63;2.15;;;15.40;73.10;;;;;;5045159;28;20543;-64
2022/07/27 06:02:04;;;;;;;8.55;1.58;;;15.30;73.20;;;;;;5046418;28;20060;-64
2022/07/27 06:04:31;;;;;;;6.32;1.50;;;15.40;72.80;;;;;;5046153;28;20048;-65
2022/07/27 06:09:44;;;;;;;9.35;1.83;;;15.40;72.40;;;;;;5027482;28;20104;-66
2022/07/27 06:12:11;;;;;;;7.63;1.60;;;15.40;72.40;;;;;;5018188;28;20053;-63
2022/07/27 06:14:38;;;;;;;11.15;2.10;;;15.30;72.20;;;;;;5024846;28;20068;-65
2022/07/27 06:17:06;;;;;;;6.72;2.08;;;15.30;72.50;;;;;;5012130;28;20049;-65
2022/07/27 06:19:38;;;;;;;6.35;1.30;;;15.40;72.10;;;;;;5034174;28;20088;-64
2022/07/27 06:22:05;;;;;;;9.48;1.67;;;15.40;72.00;;;;;;5027968;28;20045;-65
2022/07/27 06:24:32;;;;;;;8.02;1.73;;;15.40;71.30;;;;;;5050602;28;20061;-64
2022/07/27 06:26:59;;;;;;;9.88;1.55;;;15.50;71.10;;;;;;5043527;28;20620;-65
2022/07/27 06:29:26;;;;;;;11.00;1.73;;;15.40;71.00;;;;;;5044168;28;20443;-64
2022/07/27 06:31:52;;;;;;;8.48;1.45;;;15.40;71.10;;;;;;5050080;28;20041;-64
2022/07/27 06:34:20;;;;;;;5.05;1.30;;;15.50;70.30;;;;;;5033175;28;20045;-66
2022/07/27 06:36:46;;;;;;;8.38;1.63;;;15.50;69.90;;;;;;5030576;28;20056;-64
2022/07/27 06:39:15;;;;;;;7.70;1.45;;;15.60;69.80;;;;;;5042813;28;20045;-65
2022/07/27 06:41:42;;;;;;;7.13;1.88;;;15.50;70.40;;;;;;5017334;28;20052;-65
2022/07/27 06:44:09;;;;;;;7.47;2.03;;;15.50;69.80;;;;;;5043196;28;20053;-64
2022/07/27 06:46:35;;;;;;;8.52;1.40;;;15.60;70.10;;;;;;5042516;28;20121;-63
2022/07/27 06:49:06;;;;;;;6.15;1.40;;;15.50;68.10;;;;;;5024452;28;20056;-65
2022/07/27 06:51:32;;;;;;;7.00;1.48;;;15.60;68.70;;;;;;5044284;28;20129;-65
2022/07/27 06:53:59;;;;;;;11.57;1.40;;;15.70;68.00;;;;;;5031469;28;20041;-66
2022/07/27 06:56:26;;;;;;;5.60;1.48;;;15.80;68.30;;;;;;5007600;28;20048;-64
2022/07/27 06:58:53;;;;;;;8.02;1.60;;;15.80;67.50;;;;;;5047286;28;20502;-64
2022/07/27 07:01:19;;;;;;;8.35;1.80;;;15.80;67.20;;;;;;5044919;28;20060;-63
2022/07/27 07:03:47;;;;;;;8.18;1.65;;;15.70;67.20;;;;;;5046367;28;20045;-64
2022/07/27 07:06:14;;;;;;;8.38;1.25;;;15.80;67.10;;;;;;5047939;28;20053;-64
2022/07/27 07:08:41;;;;;;;11.68;2.13;;;15.90;67.10;;;;;;5020232;28;20049;-72
2022/07/27 07:11:10;;;;;;;5.25;1.48;;;15.90;66.40;;;;;;5040353;28;20045;-73
2022/07/27 07:13:37;;;;;;;11.75;1.75;;;15.90;66.80;;;;;;5029118;28;20076;-67
2022/07/27 07:16:04;;;;;;;5.45;1.38;;;15.80;67.20;;;;;;5039444;28;20045;-66
2022/07/27 07:18:31;;;;;;;7.38;1.63;;;15.90;67.00;;;;;;5043599;28;20148;-68
2022/07/27 07:21:00;;;;;;;6.63;1.30;;;16.00;66.60;;;;;;5027496;28;20072;-67
2022/07/27 07:23:26;;;;;;;10.57;1.60;;;16.30;65.80;;;;;;5032304;28;20395;-68
2022/07/27 07:25:52;;;;;;;6.30;1.80;;;16.40;64.50;;;;;;5014545;28;20512;-67
2022/07/27 07:28:21;;;;;;;5.07;1.50;;;16.40;63.60;;;;;;5044631;28;20052;-67
2022/07/27 07:30:48;;;;;;;6.53;1.50;;;16.50;63.50;;;;;;5033148;28;20052;-69
2022/07/27 07:33:15;;;;;;;10.48;1.65;;;16.60;63.90;;;;;;5046835;28;20048;-67
2022/07/27 07:35:42;;;;;;;7.70;1.55;;;16.70;63.10;;;;;;5033028;28;20052;-67
2022/07/27 07:38:09;;;;;;;8.95;1.63;;;16.60;63.60;;;;;;5045686;28;20067;-67
2022/07/27 07:40:36;;;;;;;6.20;1.33;;;16.60;63.80;;;;;;5029922;28;20732;-66
2022/07/27 07:43:03;;;;;;;8.23;1.20;;;16.40;62.70;;;;;;5030069;28;20053;-66
2022/07/27 07:45:32;;;;;;;11.00;1.42;;;16.30;63.00;;;;;;5042632;28;20091;-70
2022/07/27 07:47:59;;;;;;;13.52;1.75;;;16.20;63.50;;;;;;5039014;28;20127;-74
2022/07/27 07:50:26;;;;;;;9.23;1.40;;;16.20;63.90;;;;;;5034050;28;20049;-70
2022/07/27 07:52:53;;;;;;;6.80;1.33;;;16.20;60.80;;;;;;5047065;28;20041;-70
2022/07/27 07:55:25;;;;;;;7.15;1.42;;;16.20;59.70;;;;;;5053715;28;20064;-71
2022/07/27 07:57:52;;;;;;;8.80;1.45;;;16.30;60.90;;;;;;5014579;28;20378;-70
2022/07/27 08:00:20;;;;;;;3.63;1.00;;;16.30;59.30;;;;;;5036028;28;20428;-71
2022/07/27 08:02:49;;;;;;;5.82;1.17;;;16.40;59.10;;;;;;5030422;28;20060;-70
2022/07/27 08:05:16;;;;;;;5.22;1.05;;;16.40;58.70;;;;;;5028356;28;20077;-70
2022/07/27 08:07:43;;;;;;;10.10;1.27;;;16.30;58.10;;;;;;5031992;28;20290;-70
2022/07/27 08:10:11;;;;;;;9.68;1.50;;;16.50;59.20;;;;;;5012287;28;20052;-70
2022/07/27 08:12:39;;;;;;;5.38;1.10;;;16.70;57.80;;;;;;5046931;28;20600;-70
2022/07/27 08:15:06;;;;;;;6.85;1.27;;;17.00;57.70;;;;;;5046517;28;20136;-70
2022/07/27 08:17:34;;;;;;;4.05;1.10;;;17.20;56.90;;;;;;5030468;28;20115;-71
2022/07/27 08:20:01;;;;;;;6.18;1.40;;;17.30;56.20;;;;;;5027935;28;20057;-70
2022/07/27 08:22:27;;;;;;;4.30;1.02;;;17.10;55.00;;;;;;5049206;28;20115;-70
2022/07/27 08:24:55;;;;;;;7.35;1.25;;;17.00;54.90;;;;;;5028182;28;20053;-70
2022/07/27 08:27:22;;;;;;;6.43;1.70;;;16.80;56.30;;;;;;5024889;28;20486;-71
2022/07/27 08:29:50;;;;;;;3.40;0.85;;;17.00;57.00;;;;;;5037658;28;20080;-70
2022/07/27 08:32:17;;;;;;;8.48;1.50;;;17.30;55.70;;;;;;5045422;28;20056;-70
2022/07/27 08:34:44;;;;;;;7.32;1.27;;;17.50;55.60;;;;;;5030247;28;20080;-70
2022/07/27 08:37:11;;;;;;;5.30;1.05;;;17.50;55.40;;;;;;5047726;28;20057;-70
2022/07/27 08:39:38;;;;;;;4.10;1.10;;;17.60;56.50;;;;;;5046877;28;20045;-70
2022/07/27 08:42:08;;;;;;;7.18;1.60;;;17.70;56.30;;;;;;5046272;28;20049;-71
2022/07/27 08:44:39;;;;;;;9.88;1.67;;;17.60;55.90;;;;;;5036698;28;20076;-70
2022/07/27 08:47:05;;;;;;;8.40;1.27;;;17.60;55.40;;;;;;5030954;28;20512;-70
2022/07/27 08:49:34;;;;;;;6.13;1.00;;;17.60;55.80;;;;;;5014076;28;20049;-70
2022/07/27 08:52:11;;;;;;;5.57;1.23;;;17.80;55.60;;;;;;5043249;28;20546;-70
2022/07/27 08:54:39;;;;;;;4.93;1.20;;;18.10;54.90;;;;;;5038281;28;21329;-72
2022/07/27 08:57:07;;;;;;;5.13;1.05;;;18.30;54.80;;;;;;5044225;28;20048;-70
2022/07/27 08:59:35;;;;;;;4.32;1.40;;;18.40;54.40;;;;;;5045439;28;20471;-70
2022/07/27 09:02:03;;;;;;;5.20;1.38;;;18.60;53.50;;;;;;5046086;28;20518;-71
2022/07/27 09:04:31;;;;;;;4.18;1.15;;;18.60;52.80;;;;;;5022436;28;20053;-70
2022/07/27 09:06:58;;;;;;;5.43;1.70;;;18.50;52.80;;;;;;5038336;28;20089;-72
2022/07/27 09:09:25;;;;;;;6.07;1.30;;;18.40;53.50;;;;;;5044243;28;20436;-71
2022/07/27 09:12:08;;;;;;;3.15;1.02;;;18.40;54.00;;;;;;5030439;28;20056;-71
2022/07/27 09:14:37;;;;;;;4.82;1.40;;;18.40;53.00;;;;;;5035636;28;20084;-72
2022/07/27 09:17:24;;;;;;;6.80;1.20;;;18.50;53.50;;;;;;5027877;28;20379;-71
2022/07/27 09:20:03;;;;;;;4.93;1.00;;;18.70;53.20;;;;;;5043574;28;20053;-70
2022/07/27 09:22:53;;;;;;;6.10;1.08;;;18.80;52.00;;;;;;5041248;28;20049;-69
2022/07/27 09:25:29;;;;;;;4.15;1.25;;;18.80;51.50;;;;;;5024758;28;20640;-69
2022/07/27 09:27:57;;;;;;;10.02;1.20;;;18.60;51.60;;;;;;5047086;28;20059;-69
2022/07/27 09:30:24;;;;;;;6.45;1.50;;;18.60;51.80;;;;;;5027520;28;20053;-72
2022/07/27 09:33:04;;;;;;;4.38;1.00;;;18.40;52.00;;;;;;5017161;28;20060;-70
2022/07/27 09:35:34;;;;;;;4.55;1.08;;;18.20;52.70;;;;;;5046084;28;20064;-70
2022/07/27 09:38:23;;;;;;;8.65;1.25;;;18.40;53.20;;;;;;5027363;28;20432;-70
2022/07/27 09:41:03;;;;;;;3.17;1.00;;;18.10;51.10;;;;;;5021828;28;20052;-72
2022/07/27 09:43:32;;;;;;;5.70;1.10;;;18.10;51.70;;;;;;5039928;28;20053;-70
2022/07/27 09:46:05;;;;;;;4.15;1.08;;;18.10;51.90;;;;;;5024248;28;20114;-70
2022/07/27 09:48:33;;;;;;;4.03;1.23;;;18.40;52.20;;;;;;5041061;28;20045;-71
2022/07/27 09:51:07;;;;;;;5.43;1.10;;;18.70;51.60;;;;;;5023713;28;20060;-70
2022/07/27 09:53:34;;;;;;;3.70;1.13;;;18.50;51.40;;;;;;5044693;28;20053;-70
2022/07/27 09:56:05;;;;;;;4.65;1.10;;;18.50;51.30;;;;;;5011600;28;20041;-69
2022/07/27 09:58:50;;;;;;;5.22;1.00;;;18.50;52.20;;;;;;5051035;28;20060;-70
2022/07/27 10:01:33;;;;;;;4.95;1.02;;;18.70;51.30;;;;;;5043325;28;20462;-70
2022/07/27 10:04:05;;;;;;;4.35;0.82;;;18.80;51.70;;;;;;5034264;28;20045;-70
2022/07/27 10:06:35;;;;;;;3.83;1.08;;;18.70;51.60;;;;;;5037412;28;20049;-70
2022/07/27 10:09:06;;;;;;;4.90;1.20;;;19.00;51.30;;;;;;5027098;28;20078;-70
2022/07/27 10:11:36;;;;;;;6.07;1.10;;;19.10;48.80;;;;;;5049092;28;20411;-70
2022/07/27 10:14:04;;;;;;;8.20;1.30;;;19.10;49.60;;;;;;5050140;28;20124;-70
2022/07/27 10:16:38;;;;;;;4.00;1.23;;;19.40;48.80;;;;;;5032663;28;20103;-70
2022/07/27 10:19:55;;;;;;;4.75;1.13;;;19.40;48.50;;;;;;5021170;28;20458;-70
2022/07/27 10:22:57;;;;;;;5.03;1.13;;;19.40;48.50;;;;;;5057870;28;20462;-71
2022/07/27 10:25:26;;;;;;;6.75;1.13;;;19.40;47.40;;;;;;5044137;28;20554;-72
2022/07/27 10:28:17;;;;;;;4.85;1.30;;;19.40;48.70;;;;;;5054616;28;20052;-71
2022/07/27 10:30:46;;;;;;;5.55;1.08;;;19.50;48.50;;;;;;5029623;28;20060;-70
2022/07/27 10:33:43;;;;;;;4.55;0.98;;;19.30;48.80;;;;;;5031277;28;20490;-71
2022/07/27 10:36:40;;;;;;;5.05;1.15;;;19.30;48.70;;;;;;5019150;28;20469;-70
2022/07/27 10:39:11;;;;;;;5.68;0.90;;;19.20;47.50;;;;;;5035103;28;20059;-69
2022/07/27 10:41:47;;;;;;;4.32;0.90;;;19.20;48.20;;;;;;5045779;28;20045;-66
2022/07/27 10:44:22;;;;;;;3.15;0.93;;;19.50;46.90;;;;;;5047582;28;20049;-67
2022/07/27 10:47:02;;;;;;;4.75;0.82;;;19.70;45.50;;;;;;5042612;28;20047;-66
2022/07/27 10:49:33;;;;;;;4.65;1.20;;;20.00;45.30;;;;;;5029841;28;20045;-66
2022/07/27 10:52:00;;;;;;;5.18;0.93;;;20.00;45.30;;;;;;5048691;28;20037;-67
2022/07/27 10:54:37;;;;;;;3.47;1.20;;;20.00;45.90;;;;;;5050796;28;20040;-67
2022/07/27 10:57:05;;;;;;;7.10;1.15;;;20.00;45.40;;;;;;5028548;28;20451;-66
2022/07/27 10:59:45;;;;;;;;;;;19.70;46.30;;;;;;5031366;28;20070;-67
2022/07/27 11:02:12;;;;;;;5.05;1.23;;;19.70;46.20;;;;;;5040178;28;20402;-68
2022/07/27 11:04:50;;;;;;;2.70;0.82;;;19.90;46.40;;;;;;5032568;28;20083;-66
2022/07/27 11:07:20;;;;;;;7.47;1.88;;;20.10;45.60;;;;;;5045284;28;20040;-67
2022/07/27 11:09:50;;;;;;;3.97;0.90;;;20.20;45.50;;;;;;5042869;28;20622;-67
2022/07/27 11:12:17;;;;;;;5.40;1.00;;;20.10;45.10;;;;;;5038104;28;20098;-68
2022/07/27 11:14:46;;;;;;;6.10;1.07;;;19.80;46.10;;;;;;5048086;28;20114;-67
2022/07/27 11:17:14;;;;;;;3.92;1.00;;;20.00;46.10;;;;;;5039045;28;20045;-67
2022/07/27 11:19:41;;;;;;;4.85;1.15;;;20.00;46.00;;;;;;5048654;28;20048;-67
2022/07/27 11:22:08;;;;;;;4.75;1.08;;;20.20;45.90;;;;;;5027970;28;20353;-67
2022/07/27 11:24:35;;;;;;;5.05;1.00;;;20.30;45.10;;;;;;5038559;28;20506;-68
2022/07/27 11:27:04;;;;;;;2.50;0.70;;;20.00;44.30;;;;;;5023571;28;20057;-68
2022/07/27 11:29:35;;;;;;;3.40;1.20;;;20.30;44.10;;;;;;5049215;28;20057;-67
2022/07/27 11:32:03;;;;;;;5.13;1.20;;;20.30;44.20;;;;;;5049286;28;20068;-67
2022/07/27 11:34:35;;;;;;;5.15;1.60;;;20.20;44.80;;;;;;5048918;28;20045;-66
2022/07/27 11:37:04;;;;;;;7.80;1.63;;;20.20;45.30;;;;;;5038491;28;20044;-68
2022/07/27 11:39:32;;;;;;;6.35;1.08;;;19.90;45.80;;;;;;5045982;28;20126;-68
2022/07/27 11:42:00;;;;;;;4.30;1.17;;;20.00;46.00;;;;;;5046935;28;20080;-66
2022/07/27 11:44:28;;;;;;;3.70;1.10;;;20.30;45.20;;;;;;5018937;28;20056;-67
2022/07/27 11:46:55;;;;;;;5.68;1.15;;;20.50;44.70;;;;;;5028924;28;20049;-67
2022/07/27 11:49:29;;;;;;;4.05;1.02;;;20.50;44.30;;;;;;5038138;28;20048;-67
2022/07/27 11:52:02;;;;;;;3.13;0.85;;;20.50;44.50;;;;;;5038232;28;20049;-68
2022/07/27 11:54:34;;;;;;;2.83;1.05;;;20.90;44.00;;;;;;5039990;28;20037;-67
2022/07/27 11:57:05;;;;;;;3.97;0.90;;;20.90;43.60;;;;;;5043431;28;20081;-66
2022/07/27 11:59:34;;;;;;;2.25;0.80;;;20.60;43.10;;;;;;5046566;28;20699;-68
2022/07/27 12:02:25;;;;;;;4.30;0.70;;;20.80;44.20;;;;;;5048890;28;20466;-68
2022/07/27 12:04:56;;;;;;;3.63;0.90;;;20.70;42.80;;;;;;5038214;28;20115;-67
2022/07/27 12:07:30;;;;;;;5.80;1.45;;;20.70;43.60;;;;;;5051391;28;20465;-67
2022/07/27 12:10:03;;;;;;;5.25;1.02;;;20.90;43.50;;;;;;5036746;28;20049;-67
2022/07/27 12:12:34;;;;;;;4.45;1.33;;;21.00;43.30;;;;;;5054116;28;20046;-66
2022/07/27 12:15:13;;;;;;;3.03;0.93;;;21.20;43.10;;;;;;5033715;28;20491;-67
2022/07/27 12:17:41;;;;;;;4.97;0.93;;;21.40;42.80;;;;;;5048254;28;20053;-66
2022/07/27 12:20:14;;;;;;;3.88;1.15;;;21.40;41.90;;;;;;5044562;28;20528;-66
2022/07/27 12:22:53;;;;;;;6.43;1.30;;;21.20;42.20;;;;;;5047196;28;20470;-66
2022/07/27 12:25:29;;;;;;;2.35;0.90;;;21.20;42.20;;;;;;5046730;28;20561;-67
2022/07/27 12:28:08;;;;;;;3.85;1.00;;;21.00;42.70;;;;;;5050686;28;20057;-67
2022/07/27 12:30:47;;;;;;;4.07;0.93;;;21.00;43.00;;;;;;5048778;28;20045;-68
2022/07/27 12:33:36;;;;;;;4.53;0.80;;;21.30;42.60;;;;;;5030153;28;20052;-66
2022/07/27 12:36:04;;;;;;;3.35;1.00;;;21.20;41.80;;;;;;5048080;28;20048;-67
2022/07/27 12:38:45;;;;;;;5.10;1.10;;;21.10;41.60;;;;;;5037012;28;20459;-67
2022/07/27 12:41:36;;;;;;;8.70;1.10;;;21.30;41.90;;;;;;5045081;28;20471;-67
2022/07/27 12:44:08;;;;;;;3.67;1.00;;;21.50;41.70;;;;;;5021916;28;20045;-67
2022/07/27 12:46:50;;;;;;;5.38;1.13;;;21.40;42.90;;;;;;5034042;28;20072;-66
2022/07/27 12:49:15;;;;;;;3.85;0.90;;;21.10;43.20;;;;;;5046579;28;20107;-66
2022/07/27 12:51:41;;;;;;;3.20;1.10;;;21.30;43.90;;;;;;5030301;28;20405;-66
2022/07/27 12:54:07;;;;;;;5.32;0.93;;;21.50;43.70;;;;;;5024495;28;20045;-67
2022/07/27 12:56:33;;;;;;;5.88;1.10;;;21.70;43.00;;;;;;5048419;28;20041;-67
2022/07/27 12:59:00;;;;;;;4.25;1.00;;;21.70;42.80;;;;;;5026026;28;20049;-67
2022/07/27 13:01:25;;;;;;;2.13;0.80;;;21.90;43.20;;;;;;5023268;28;20037;-67
2022/07/27 13:03:51;;;;;;;3.42;0.80;;;21.80;41.90;;;;;;5042240;28;20052;-67